Time;durP1;ratioP1;P1;durP2;ratioP2;P2;SDS_P1;SDS_P2;PMS_P1;PMS_P2;Temp;Humidity;BMP_temperature;BMP_pressure;BME280_temperature;BME280_humidity;BME280_pressure;Samples;Min_cycle;Max_cycle;Signal;HPM_P1;HPM_P2
2023/07/31 00:01:15;;;;;;;7.68;3.97;;;16.30;99.90;;;;;;5071849;28;20048;-72
2023/07/31 00:03:40;;;;;;;6.45;3.42;;;16.30;99.90;;;;;;5054125;28;20059;-72
2023/07/31 00:06:06;;;;;;;6.03;3.47;;;16.20;99.90;;;;;;5053630;28;20501;-71
2023/07/31 00:08:32;;;;;;;6.55;3.70;;;16.10;99.90;;;;;;5053614;28;20523;-72
2023/07/31 00:10:57;;;;;;;5.28;3.47;;;16.30;99.90;;;;;;5071661;28;20033;-72
2023/07/31 00:13:23;;;;;;;5.93;3.67;;;16.10;99.90;;;;;;5071634;28;20032;-72
2023/07/31 00:15:48;;;;;;;4.78;3.17;;;16.10;99.90;;;;;;5053997;28;20068;-72
2023/07/31 00:18:14;;;;;;;6.68;3.20;;;16.30;99.90;;;;;;5071141;28;20048;-71
2023/07/31 00:20:40;;;;;;;5.32;3.03;;;16.20;99.90;;;;;;5071312;28;20495;-72
2023/07/31 00:23:05;;;;;;;3.75;3.13;;;16.10;99.90;;;;;;5036577;28;20095;-72
2023/07/31 00:25:31;;;;;;;4.30;3.45;;;16.10;99.90;;;;;;5071096;28;20037;-72
2023/07/31 00:27:56;;;;;;;4.25;2.47;;;16.20;99.90;;;;;;5070644;28;20569;-72
2023/07/31 00:30:22;;;;;;;5.18;2.38;;;16.10;99.90;;;;;;5069350;28;20043;-72
2023/07/31 00:32:48;;;;;;;4.07;2.60;;;16.10;99.90;;;;;;5061847;28;20070;-72
2023/07/31 00:35:13;;;;;;;4.18;2.78;;;16.10;99.90;;;;;;5072385;28;20047;-72
2023/07/31 00:37:39;;;;;;;6.13;2.67;;;16.00;99.90;;;;;;5075125;28;20082;-72
2023/07/31 00:40:05;;;;;;;6.50;2.90;;;15.90;99.90;;;;;;5075280;28;20124;-72
2023/07/31 00:42:31;;;;;;;5.93;2.75;;;15.90;99.90;;;;;;5075400;28;20032;-72
2023/07/31 00:44:56;;;;;;;4.78;2.65;;;15.80;99.90;;;;;;5074070;28;20514;-74
2023/07/31 00:47:22;;;;;;;7.70;3.22;;;16.00;99.90;;;;;;5073594;28;20170;-72
2023/07/31 00:49:48;;;;;;;7.95;3.25;;;15.90;99.90;;;;;;5073560;28;20648;-72
2023/07/31 00:52:14;;;;;;;3.70;2.40;;;16.00;99.90;;;;;;5074832;28;20428;-72
2023/07/31 00:54:39;;;;;;;5.47;2.85;;;16.00;99.90;;;;;;5056927;28;20036;-72
2023/07/31 00:57:07;;;;;;;3.47;2.75;;;15.90;99.90;;;;;;5073466;28;20581;-72
2023/07/31 00:59:33;;;;;;;4.30;2.90;;;15.90;99.90;;;;;;5074177;28;20044;-72
2023/07/31 01:01:58;;;;;;;5.32;3.17;;;15.80;99.90;;;;;;5075045;28;20041;-72
2023/07/31 01:04:24;;;;;;;4.68;3.30;;;15.80;99.90;;;;;;5073660;28;20127;-72
2023/07/31 01:07:22;;;;;;;4.50;3.28;;;15.80;99.90;;;;;;5074440;28;20466;-71
2023/07/31 01:09:52;;;;;;;4.18;2.90;;;15.90;99.90;;;;;;5057005;28;20086;-72
2023/07/31 01:12:20;;;;;;;4.18;2.63;;;15.90;99.90;;;;;;5074806;28;20572;-72
2023/07/31 01:15:06;;;;;;;4.25;2.72;;;15.90;99.90;;;;;;5074764;28;20522;-72
2023/07/31 01:17:31;;;;;;;4.05;2.70;;;15.70;99.90;;;;;;5073275;28;20123;-71
2023/07/31 01:20:08;;;;;;;2.75;2.17;;;15.90;99.90;;;;;;5073516;28;20135;-71
2023/07/31 01:23:01;;;;;;;3.58;2.15;;;15.90;99.90;;;;;;5073434;28;20665;-72
2023/07/31 01:26:01;;;;;;;3.70;2.08;;;15.70;99.90;;;;;;5074710;28;20044;-71
2023/07/31 01:28:46;;;;;;;5.45;2.63;;;15.90;99.90;;;;;;5074202;28;20047;-72
2023/07/31 01:31:18;;;;;;;3.60;2.75;;;15.80;99.90;;;;;;5074753;28;20036;-72
2023/07/31 01:33:43;;;;;;;3.88;2.30;;;15.80;99.90;;;;;;5074528;28;20037;-72
2023/07/31 01:36:10;;;;;;;3.50;2.08;;;15.90;99.90;;;;;;5074315;28;20036;-71
2023/07/31 01:38:35;;;;;;;3.97;2.53;;;15.80;99.90;;;;;;5074032;28;20052;-72
2023/07/31 01:41:01;;;;;;;4.30;1.98;;;15.90;99.90;;;;;;5073054;28;20040;-72
2023/07/31 01:43:26;;;;;;;3.70;2.05;;;15.70;99.90;;;;;;5074283;28;20036;-72
2023/07/31 01:45:52;;;;;;;2.90;1.83;;;15.70;99.90;;;;;;5072538;28;20044;-72
2023/07/31 01:48:17;;;;;;;3.50;1.83;;;15.90;99.90;;;;;;5073903;28;20044;-72
2023/07/31 01:50:43;;;;;;;2.55;1.85;;;15.70;99.90;;;;;;5074260;28;20062;-72
2023/07/31 01:53:09;;;;;;;2.15;1.60;;;15.70;99.90;;;;;;5074122;28;20516;-72
2023/07/31 01:55:34;;;;;;;3.35;1.80;;;15.80;99.90;;;;;;5072777;28;20410;-72
2023/07/31 01:58:00;;;;;;;2.92;1.58;;;15.80;99.90;;;;;;5072457;28;20044;-72
2023/07/31 02:00:25;;;;;;;2.03;1.33;;;15.90;99.90;;;;;;5074349;28;20048;-72
2023/07/31 02:02:51;;;;;;;6.65;1.40;;;15.80;99.90;;;;;;5072704;28;20072;-72
2023/07/31 02:05:16;;;;;;;2.05;1.42;;;15.90;99.90;;;;;;5072788;28;20083;-72
2023/07/31 02:07:42;;;;;;;1.83;1.02;;;15.80;99.90;;;;;;5072332;28;20099;-72
2023/07/31 02:10:07;;;;;;;4.45;1.33;;;15.80;99.90;;;;;;5072816;28;20028;-72
2023/07/31 02:12:33;;;;;;;1.88;1.13;;;15.70;99.90;;;;;;5072529;28;20124;-72
2023/07/31 02:14:59;;;;;;;2.50;1.00;;;15.70;99.90;;;;;;5072542;28;20076;-72
2023/07/31 02:17:24;;;;;;;2.63;0.82;;;15.70;99.90;;;;;;5072373;28;20040;-72
2023/07/31 02:19:50;;;;;;;3.22;0.85;;;15.80;99.90;;;;;;5072406;28;20045;-72
2023/07/31 02:22:16;;;;;;;1.27;0.60;;;15.80;99.90;;;;;;5072304;28;20048;-72
2023/07/31 02:24:41;;;;;;;1.92;0.63;;;15.80;99.90;;;;;;5073482;28;20043;-72
2023/07/31 02:27:07;;;;;;;2.75;0.70;;;15.80;99.90;;;;;;5073306;28;20496;-72
2023/07/31 02:29:33;;;;;;;2.55;0.63;;;15.80;99.90;;;;;;5072426;28;20128;-72
2023/07/31 02:31:59;;;;;;;1.77;0.60;;;15.80;99.90;;;;;;5073519;28;20064;-72
2023/07/31 02:34:24;;;;;;;0.75;0.40;;;15.60;99.90;;;;;;5072320;28;20044;-72
2023/07/31 02:36:50;;;;;;;0.85;0.55;;;15.60;99.90;;;;;;5072829;28;20040;-72
2023/07/31 02:39:15;;;;;;;1.20;0.70;;;15.60;99.90;;;;;;5077622;22;20055;-70
2023/07/31 02:41:41;;;;;;;1.15;0.63;;;15.80;99.90;;;;;;5073311;28;20028;-70
2023/07/31 02:44:07;;;;;;;0.88;0.55;;;15.80;99.90;;;;;;5073242;28;20037;-70
2023/07/31 02:46:32;;;;;;;0.73;0.50;;;15.80;99.90;;;;;;5072980;28;20443;-70
2023/07/31 02:48:58;;;;;;;1.88;0.57;;;15.80;99.90;;;;;;5072876;28;20068;-70
2023/07/31 02:51:23;;;;;;;0.85;0.45;;;15.60;99.90;;;;;;5072951;28;20037;-70
2023/07/31 02:53:49;;;;;;;1.70;0.50;;;15.70;99.90;;;;;;5072830;28;20033;-70
2023/07/31 02:56:15;;;;;;;1.38;0.40;;;15.70;99.90;;;;;;5072939;28;20071;-70
2023/07/31 02:58:40;;;;;;;1.15;0.40;;;15.80;99.90;;;;;;5054048;28;20037;-70
2023/07/31 03:01:06;;;;;;;1.48;0.50;;;15.80;99.90;;;;;;5072902;28;20043;-70
2023/07/31 03:03:31;;;;;;;2.47;0.40;;;15.80;99.90;;;;;;5072887;28;20050;-70
2023/07/31 03:05:57;;;;;;;0.50;0.40;;;15.80;99.90;;;;;;5072692;28;20068;-70
2023/07/31 03:08:23;;;;;;;2.03;0.50;;;15.80;99.90;;;;;;5054287;28;20416;-70
2023/07/31 03:10:48;;;;;;;2.35;0.50;;;15.80;99.90;;;;;;5072856;28;20052;-70
2023/07/31 03:13:14;;;;;;;2.15;0.70;;;15.70;99.90;;;;;;5054673;28;20123;-70
2023/07/31 03:15:42;;;;;;;2.75;0.93;;;15.70;99.90;;;;;;5054686;28;20090;-70
2023/07/31 03:18:08;;;;;;;3.28;0.60;;;15.80;99.90;;;;;;5072274;28;20120;-70
2023/07/31 03:20:33;;;;;;;2.17;0.60;;;15.80;99.90;;;;;;5072409;28;20464;-70
2023/07/31 03:22:59;;;;;;;0.88;0.50;;;15.80;99.90;;;;;;5054187;28;20454;-70
2023/07/31 03:25:24;;;;;;;2.65;0.90;;;15.60;99.90;;;;;;5054436;28;20044;-70
2023/07/31 03:27:50;;;;;;;2.67;0.40;;;15.80;99.90;;;;;;5054001;28;20050;-71
2023/07/31 03:30:16;;;;;;;1.85;0.77;;;15.80;99.90;;;;;;5072345;28;20051;-71
2023/07/31 03:32:41;;;;;;;1.55;0.70;;;15.60;99.90;;;;;;5054289;28;20036;-71
2023/07/31 03:35:07;;;;;;;1.67;0.80;;;15.80;99.90;;;;;;5072139;28;20093;-70
2023/07/31 03:37:32;;;;;;;1.58;0.50;;;15.60;99.90;;;;;;5053667;28;20124;-70
2023/07/31 03:39:58;;;;;;;1.10;0.63;;;15.80;99.90;;;;;;5072281;28;20407;-70
2023/07/31 03:42:23;;;;;;;1.15;0.57;;;15.60;99.90;;;;;;5054178;28;20442;-70
2023/07/31 03:44:49;;;;;;;1.20;0.68;;;15.80;99.90;;;;;;5054058;28;20047;-70
2023/07/31 03:47:15;;;;;;;1.73;0.70;;;15.80;99.90;;;;;;5053752;28;20046;-70
2023/07/31 03:49:41;;;;;;;1.73;0.52;;;15.80;99.90;;;;;;5071917;28;20037;-70
2023/07/31 03:52:06;;;;;;;2.47;1.10;;;15.70;99.90;;;;;;5053892;28;20403;-70
2023/07/31 03:54:32;;;;;;;1.70;0.80;;;15.90;99.90;;;;;;5072006;28;20109;-71
2023/07/31 03:56:58;;;;;;;4.00;1.02;;;15.90;99.90;;;;;;5053450;28;20094;-70
2023/07/31 03:59:23;;;;;;;1.38;0.82;;;15.90;99.90;;;;;;5053785;28;20131;-70
2023/07/31 04:01:49;;;;;;;1.58;0.60;;;15.80;99.90;;;;;;5037298;28;20044;-71
2023/07/31 04:04:14;;;;;;;1.50;0.80;;;15.90;99.90;;;;;;5053801;28;20139;-70
2023/07/31 04:06:40;;;;;;;2.92;0.70;;;15.90;99.90;;;;;;5071250;28;20036;-70
2023/07/31 04:09:05;;;;;;;3.17;0.60;;;15.90;99.90;;;;;;5071782;28;20037;-70
2023/07/31 04:11:31;;;;;;;1.02;0.57;;;15.80;99.90;;;;;;5071541;28;20048;-71
2023/07/31 04:13:57;;;;;;;1.10;0.80;;;15.90;99.90;;;;;;5071335;28;20040;-71
2023/07/31 04:16:22;;;;;;;1.50;0.60;;;15.80;99.90;;;;;;5071602;28;20032;-71
2023/07/31 04:18:51;;;;;;;2.30;0.60;;;15.90;99.90;;;;;;5071296;28;20036;-71
2023/07/31 04:21:17;;;;;;;1.23;0.50;;;15.90;99.90;;;;;;5071438;28;20082;-71
2023/07/31 04:23:43;;;;;;;1.33;0.70;;;15.80;99.90;;;;;;5071536;28;20048;-72
2023/07/31 04:26:08;;;;;;;2.47;0.75;;;15.80;99.90;;;;;;5071170;28;20058;-72
2023/07/31 04:28:34;;;;;;;0.85;0.50;;;15.90;99.90;;;;;;5070949;28;20223;-71
2023/07/31 04:30:59;;;;;;;2.63;0.60;;;16.00;99.90;;;;;;5071292;28;20064;-71
2023/07/31 04:33:25;;;;;;;1.13;0.93;;;15.90;99.90;;;;;;5071127;28;20177;-71
2023/07/31 04:35:53;;;;;;;1.00;0.55;;;15.80;99.90;;;;;;5070953;28;20044;-71
2023/07/31 04:38:20;;;;;;;2.30;0.57;;;15.90;99.90;;;;;;5070793;28;20045;-71
2023/07/31 04:40:47;;;;;;;0.68;0.45;;;16.00;99.90;;;;;;5071246;28;20060;-71
2023/07/31 04:43:12;;;;;;;1.15;0.50;;;16.10;99.90;;;;;;5071112;28;20076;-72
2023/07/31 04:45:38;;;;;;;1.02;0.40;;;16.00;99.90;;;;;;5071028;28;20216;-71
2023/07/31 04:48:04;;;;;;;1.02;0.55;;;16.20;99.90;;;;;;5070623;28;20415;-71
2023/07/31 04:50:30;;;;;;;0.57;0.47;;;16.00;99.90;;;;;;5070826;28;20032;-71
2023/07/31 04:52:56;;;;;;;1.20;0.50;;;15.90;99.90;;;;;;5071083;28;20090;-71
2023/07/31 04:55:21;;;;;;;0.77;0.50;;;16.20;99.90;;;;;;5070901;28;20434;-71
2023/07/31 04:57:47;;;;;;;0.77;0.40;;;16.10;99.90;;;;;;5070588;28;20040;-71
2023/07/31 05:00:13;;;;;;;1.33;0.50;;;15.90;99.90;;;;;;5070815;28;20041;-71
2023/07/31 05:02:38;;;;;;;2.42;0.70;;;16.10;99.90;;;;;;5070702;28;20040;-70
2023/07/31 05:05:04;;;;;;;0.98;0.43;;;16.10;99.90;;;;;;5070609;28;20033;-69
2023/07/31 05:07:30;;;;;;;1.40;0.90;;;16.00;99.90;;;;;;5070253;28;20052;-70
2023/07/31 05:09:55;;;;;;;1.38;0.50;;;16.20;99.90;;;;;;5070906;28;20039;-69
2023/07/31 05:12:21;;;;;;;4.57;0.93;;;16.00;99.90;;;;;;5052886;28;20028;-70
2023/07/31 05:14:46;;;;;;;1.15;0.50;;;16.00;99.90;;;;;;5052907;28;20076;-71
2023/07/31 05:17:12;;;;;;;0.90;0.60;;;16.00;99.90;;;;;;5052343;28;20419;-72
2023/07/31 05:19:37;;;;;;;2.28;0.80;;;15.90;99.90;;;;;;5052506;28;20498;-72
2023/07/31 05:22:03;;;;;;;1.92;0.90;;;16.10;99.90;;;;;;5056075;28;20040;-72
2023/07/31 05:24:29;;;;;;;1.15;0.50;;;16.10;99.90;;;;;;5074408;28;20495;-72
2023/07/31 05:26:55;;;;;;;2.40;0.80;;;16.10;99.90;;;;;;5056019;28;20477;-72
2023/07/31 05:29:20;;;;;;;1.88;0.70;;;16.20;99.90;;;;;;5074183;28;20036;-72
2023/07/31 05:31:46;;;;;;;0.90;0.50;;;16.10;99.90;;;;;;5074166;28;20115;-72
2023/07/31 05:34:12;;;;;;;3.30;0.98;;;16.00;99.90;;;;;;5073996;28;20089;-72
2023/07/31 05:36:37;;;;;;;1.63;1.00;;;16.20;99.90;;;;;;5073893;28;20044;-72
2023/07/31 05:39:06;;;;;;;2.97;1.00;;;16.20;99.90;;;;;;5073881;28;20039;-72
2023/07/31 05:41:32;;;;;;;2.17;0.90;;;16.20;99.90;;;;;;5056286;28;20124;-72
2023/07/31 05:43:58;;;;;;;1.63;0.80;;;16.10;99.90;;;;;;5073947;28;20067;-72
2023/07/31 05:46:23;;;;;;;2.20;0.68;;;16.00;99.90;;;;;;5039143;28;20033;-72
2023/07/31 05:48:49;;;;;;;1.20;0.63;;;16.20;99.90;;;;;;5073557;28;20062;-72
2023/07/31 05:51:14;;;;;;;1.70;0.75;;;16.00;99.90;;;;;;5047244;28;20045;-73
2023/07/31 05:53:40;;;;;;;1.60;0.80;;;16.20;99.90;;;;;;5053923;28;20045;-72
2023/07/31 05:56:06;;;;;;;2.55;1.00;;;16.20;99.90;;;;;;5034764;28;20098;-71
2023/07/31 05:58:32;;;;;;;3.72;1.40;;;16.00;99.90;;;;;;5053124;28;20037;-71
2023/07/31 06:00:57;;;;;;;2.90;1.10;;;16.00;99.90;;;;;;5053430;28;20036;-71
2023/07/31 06:03:23;;;;;;;3.95;1.48;;;16.30;99.90;;;;;;5035265;28;20090;-71
2023/07/31 06:05:48;;;;;;;2.47;1.40;;;16.00;99.90;;;;;;5019236;28;20041;-71
2023/07/31 06:08:14;;;;;;;3.17;1.38;;;16.10;99.90;;;;;;5035252;28;20182;-70
2023/07/31 06:10:40;;;;;;;3.85;1.23;;;16.00;99.90;;;;;;5035497;28;20033;-70
2023/07/31 06:13:05;;;;;;;3.28;1.65;;;16.00;99.90;;;;;;5035544;28;20041;-71
2023/07/31 06:15:31;;;;;;;2.22;1.20;;;16.10;99.90;;;;;;5053363;28;20040;-70
2023/07/31 06:17:57;;;;;;;3.08;1.30;;;16.10;99.90;;;;;;5052909;28;20086;-71
2023/07/31 06:20:23;;;;;;;4.30;1.73;;;16.10;99.90;;;;;;5053499;28;20466;-71
2023/07/31 06:22:48;;;;;;;4.63;1.73;;;16.30;99.90;;;;;;5053410;28;20041;-71
2023/07/31 06:25:14;;;;;;;4.00;1.98;;;16.40;99.90;;;;;;5053244;28;20116;-71
2023/07/31 06:27:39;;;;;;;3.33;1.52;;;16.30;99.90;;;;;;5034961;28;20037;-71
2023/07/31 06:30:06;;;;;;;6.78;2.22;;;16.20;99.90;;;;;;5053163;28;20090;-72
2023/07/31 06:32:31;;;;;;;5.57;2.20;;;16.10;99.90;;;;;;5017362;28;20047;-72
2023/07/31 06:34:57;;;;;;;5.57;2.53;;;16.40;99.90;;;;;;5035181;28;20045;-71
2023/07/31 06:37:22;;;;;;;5.75;3.13;;;16.50;99.90;;;;;;5052688;28;20041;-72
2023/07/31 06:39:48;;;;;;;10.25;3.38;;;16.40;99.90;;;;;;5035158;28;20040;-72
2023/07/31 06:42:14;;;;;;;11.32;4.22;;;16.40;99.90;;;;;;5052959;28;20086;-72
2023/07/31 06:44:39;;;;;;;15.80;5.20;;;16.40;99.90;;;;;;5052940;28;20041;-72
2023/07/31 06:47:05;;;;;;;13.10;6.70;;;16.50;99.90;;;;;;5052170;28;20124;-71
2023/07/31 06:49:30;;;;;;;18.70;6.72;;;16.80;99.90;;;;;;5052768;28;20036;-71
2023/07/31 06:51:56;;;;;;;20.90;7.80;;;16.70;99.90;;;;;;5052843;28;20026;-71
2023/07/31 06:54:22;;;;;;;26.15;7.78;;;16.70;99.90;;;;;;5034818;28;20513;-71
2023/07/31 06:56:47;;;;;;;23.38;7.78;;;16.70;99.90;;;;;;5052632;28;20116;-71
2023/07/31 06:59:13;;;;;;;21.30;8.38;;;17.10;99.90;;;;;;5052355;28;20492;-71
2023/07/31 07:01:38;;;;;;;17.00;7.15;;;16.90;99.90;;;;;;5034716;28;20056;-71
2023/07/31 07:04:04;;;;;;;18.77;7.88;;;16.90;99.90;;;;;;5052652;28;20044;-72
2023/07/31 07:06:29;;;;;;;19.38;8.15;;;17.00;99.90;;;;;;5034361;28;20048;-71
2023/07/31 07:08:55;;;;;;;22.42;6.95;;;17.30;99.90;;;;;;5052236;28;20033;-71
2023/07/31 07:11:21;;;;;;;23.95;7.20;;;17.30;99.90;;;;;;5052356;28;20029;-71
2023/07/31 07:13:46;;;;;;;21.08;7.20;;;17.10;99.90;;;;;;5052359;28;20436;-71
2023/07/31 07:16:12;;;;;;;18.55;7.43;;;16.90;99.90;;;;;;5051972;28;20060;-71
2023/07/31 07:18:37;;;;;;;23.50;7.05;;;16.90;99.90;;;;;;5052279;28;20087;-71
2023/07/31 07:21:03;;;;;;;20.77;7.18;;;17.00;99.90;;;;;;5052300;28;20037;-72
2023/07/31 07:23:29;;;;;;;20.80;6.15;;;17.20;99.90;;;;;;5034415;28;20412;-71
2023/07/31 07:25:54;;;;;;;23.55;6.68;;;17.30;99.90;;;;;;5052092;28;20045;-71
2023/07/31 07:28:20;;;;;;;18.65;7.53;;;17.30;99.90;;;;;;5033793;28;20059;-71
2023/07/31 07:30:52;;;;;;;19.58;6.82;;;17.20;99.90;;;;;;5052060;28;20040;-71
2023/07/31 07:33:18;;;;;;;21.07;7.03;;;17.30;99.90;;;;;;5034752;28;20064;-71
2023/07/31 07:35:43;;;;;;;21.50;7.55;;;16.90;99.90;;;;;;5052375;28;20069;-71
2023/07/31 07:38:09;;;;;;;17.98;7.00;;;17.20;99.90;;;;;;5034201;28;20502;-71
2023/07/31 07:40:39;;;;;;;16.63;6.15;;;17.10;99.90;;;;;;5052541;28;20622;-72
2023/07/31 07:43:04;;;;;;;12.90;5.32;;;17.20;99.90;;;;;;5051979;28;20078;-71
2023/07/31 07:45:30;;;;;;;12.70;5.25;;;16.90;99.90;;;;;;5052428;28;20036;-72
2023/07/31 07:47:55;;;;;;;13.73;4.72;;;17.20;99.90;;;;;;5051998;28;20432;-71
2023/07/31 07:50:21;;;;;;;13.82;5.47;;;17.30;99.90;;;;;;5052035;28;20098;-71
2023/07/31 07:52:47;;;;;;;11.43;4.95;;;17.20;99.90;;;;;;5051907;28;20041;-70
2023/07/31 07:55:12;;;;;;;10.27;5.15;;;16.90;99.90;;;;;;5051644;28;20033;-69
2023/07/31 07:57:38;;;;;;;10.90;3.42;;;17.30;99.90;;;;;;5033282;28;20118;-69
2023/07/31 08:00:05;;;;;;;10.27;4.18;;;17.20;99.90;;;;;;5051430;28;20512;-69
2023/07/31 08:02:31;;;;;;;9.07;3.58;;;17.10;99.90;;;;;;5034359;28;20052;-69
2023/07/31 08:04:56;;;;;;;6.28;3.15;;;17.20;99.90;;;;;;5052046;28;20037;-72
2023/07/31 08:07:22;;;;;;;6.68;2.90;;;17.10;99.90;;;;;;5051659;28;20040;-72
2023/07/31 08:09:48;;;;;;;7.22;3.00;;;16.90;99.90;;;;;;5033926;28;20044;-72
2023/07/31 08:12:13;;;;;;;6.18;2.88;;;17.20;99.90;;;;;;5033926;28;20124;-72
2023/07/31 08:14:39;;;;;;;5.03;2.78;;;17.10;99.90;;;;;;5033826;28;20033;-72
2023/07/31 08:17:04;;;;;;;4.57;2.50;;;17.20;99.90;;;;;;5051552;28;20040;-72
2023/07/31 08:19:30;;;;;;;5.82;2.58;;;17.10;99.90;;;;;;5051289;28;20052;-72
2023/07/31 08:21:56;;;;;;;5.40;2.53;;;16.90;99.90;;;;;;5051432;28;20033;-71
2023/07/31 08:24:21;;;;;;;4.10;2.10;;;16.80;99.90;;;;;;5051242;28;20076;-71
2023/07/31 08:26:48;;;;;;;6.53;2.38;;;17.10;99.90;;;;;;5050862;28;20037;-71
2023/07/31 08:29:13;;;;;;;6.80;2.08;;;17.20;99.90;;;;;;5051021;28;20569;-71
2023/07/31 08:31:39;;;;;;;9.40;2.53;;;16.80;99.90;;;;;;5051411;28;20033;-72
2023/07/31 08:34:04;;;;;;;6.13;2.10;;;16.90;99.90;;;;;;5051309;28;20049;-71
2023/07/31 08:36:30;;;;;;;5.07;2.20;;;17.10;99.90;;;;;;5051049;28;20032;-71
2023/07/31 08:38:55;;;;;;;5.25;2.50;;;17.10;99.90;;;;;;5050774;28;20052;-71
2023/07/31 08:41:21;;;;;;;5.40;2.15;;;17.40;99.90;;;;;;5051092;28;20040;-71
2023/07/31 08:43:47;;;;;;;2.60;1.80;;;17.40;99.90;;;;;;5050958;28;20040;-73
2023/07/31 08:46:14;;;;;;;4.72;2.22;;;17.50;99.90;;;;;;5050955;28;20029;-72
2023/07/31 08:48:41;;;;;;;3.28;1.90;;;17.20;99.90;;;;;;5033088;28;20137;-71
2023/07/31 08:51:07;;;;;;;2.90;1.88;;;17.30;99.90;;;;;;5016686;28;20041;-71
2023/07/31 08:53:33;;;;;;;3.33;1.85;;;17.40;99.90;;;;;;5033063;28;20029;-71
2023/07/31 08:55:59;;;;;;;2.88;1.52;;;17.40;99.90;;;;;;5052564;28;20163;-71
2023/07/31 08:58:27;;;;;;;3.60;1.60;;;17.40;99.90;;;;;;5036454;28;20041;-71
2023/07/31 09:00:55;;;;;;;3.30;1.67;;;17.40;99.90;;;;;;5036993;28;20045;-69
2023/07/31 09:03:22;;;;;;;3.05;1.48;;;17.60;99.90;;;;;;5054864;28;20059;-69
2023/07/31 09:05:49;;;;;;;4.80;1.85;;;17.60;99.90;;;;;;5036783;28;20056;-71
2023/07/31 09:08:19;;;;;;;3.05;1.67;;;17.40;99.90;;;;;;5054380;28;20045;-71
2023/07/31 09:10:46;;;;;;;2.97;1.73;;;17.50;99.90;;;;;;5054605;28;20411;-71
2023/07/31 09:13:12;;;;;;;3.55;1.50;;;17.70;99.90;;;;;;5036871;28;20049;-71
2023/07/31 09:15:39;;;;;;;3.38;1.42;;;17.70;99.90;;;;;;5054669;28;20041;-71
2023/07/31 09:18:06;;;;;;;3.72;2.00;;;17.70;99.90;;;;;;5036370;28;20090;-71
2023/07/31 09:20:33;;;;;;;2.95;1.20;;;17.60;99.90;;;;;;5054427;28;20476;-71
2023/07/31 09:23:13;;;;;;;1.92;1.30;;;17.40;99.90;;;;;;5036477;28;20041;-71
2023/07/31 09:25:40;;;;;;;2.83;1.50;;;17.70;99.90;;;;;;5054599;28;20041;-71
2023/07/31 09:28:07;;;;;;;3.10;1.50;;;17.40;99.90;;;;;;5035892;28;20472;-71
2023/07/31 09:30:46;;;;;;;2.35;1.48;;;17.40;99.90;;;;;;5036403;28;20064;-71
2023/07/31 09:33:11;;;;;;;2.03;1.13;;;17.40;99.90;;;;;;5036296;28;20040;-71
2023/07/31 09:35:37;;;;;;;2.70;1.40;;;17.60;99.90;;;;;;5054113;28;20396;-71
2023/07/31 09:38:05;;;;;;;3.33;1.27;;;17.50;99.90;;;;;;5036027;28;20102;-71
2023/07/31 09:40:36;;;;;;;3.83;1.30;;;17.40;99.90;;;;;;5036389;28;20119;-71
2023/07/31 09:43:07;;;;;;;1.60;1.17;;;17.60;99.90;;;;;;5054098;28;20114;-71
2023/07/31 09:45:38;;;;;;;2.28;1.50;;;17.50;99.90;;;;;;5036264;28;20037;-71
2023/07/31 09:48:12;;;;;;;1.70;0.90;;;17.50;99.90;;;;;;5035627;28;20044;-71
2023/07/31 09:50:39;;;;;;;1.77;1.00;;;17.60;99.90;;;;;;5053876;28;20029;-71
2023/07/31 09:53:06;;;;;;;2.42;1.00;;;17.70;99.90;;;;;;5053731;28;20044;-69
2023/07/31 09:55:32;;;;;;;1.45;0.80;;;17.50;99.90;;;;;;5053768;28;20493;-71
2023/07/31 09:57:58;;;;;;;1.13;0.70;;;18.00;99.90;;;;;;5053482;28;20119;-72
2023/07/31 10:00:28;;;;;;;0.90;0.70;;;17.70;99.90;;;;;;5053606;28;20044;-71
2023/07/31 10:02:58;;;;;;;1.10;0.70;;;17.90;99.90;;;;;;5056070;28;20040;-71
2023/07/31 10:05:26;;;;;;;1.30;0.70;;;18.20;99.90;;;;;;5073649;28;20067;-71
2023/07/31 10:07:55;;;;;;;2.05;1.05;;;17.90;99.90;;;;;;5072863;28;20045;-71
2023/07/31 10:10:22;;;;;;;0.68;0.40;;;18.20;99.90;;;;;;5064070;28;20381;-71
2023/07/31 10:12:53;;;;;;;1.80;0.55;;;18.10;99.90;;;;;;5072180;28;20051;-71
2023/07/31 10:15:19;;;;;;;0.90;0.60;;;18.40;99.90;;;;;;5073420;28;20111;-71
2023/07/31 10:17:47;;;;;;;0.75;0.38;;;18.50;99.90;;;;;;5073216;28;20064;-71
2023/07/31 10:20:14;;;;;;;1.02;0.35;;;18.60;99.90;;;;;;5073535;28;20048;-71
2023/07/31 10:22:40;;;;;;;2.03;0.50;;;18.70;99.90;;;;;;5065432;28;20041;-71
2023/07/31 10:25:08;;;;;;;0.47;0.32;;;18.40;99.90;;;;;;5063622;28;20044;-71
2023/07/31 10:27:35;;;;;;;2.45;0.60;;;18.40;99.90;;;;;;5072745;28;20040;-71
2023/07/31 10:30:04;;;;;;;1.90;0.40;;;18.50;99.90;;;;;;5073075;28;20041;-71
2023/07/31 10:32:30;;;;;;;0.70;0.38;;;18.70;99.90;;;;;;5071878;28;20044;-70
2023/07/31 10:34:57;;;;;;;0.35;0.30;;;18.50;99.90;;;;;;5073178;28;20032;-69
2023/07/31 10:37:35;;;;;;;0.80;0.47;;;18.40;99.90;;;;;;5072523;28;20040;-69
2023/07/31 10:40:03;;;;;;;1.63;0.60;;;18.70;99.90;;;;;;5073041;28;20051;-69
2023/07/31 10:42:58;;;;;;;0.85;0.50;;;18.30;99.90;;;;;;5072706;28;20187;-69
2023/07/31 10:45:36;;;;;;;0.85;0.50;;;18.50;99.90;;;;;;5039833;28;20049;-71
2023/07/31 10:48:05;;;;;;;1.10;0.52;;;18.30;99.90;;;;;;5052268;28;20045;-71
2023/07/31 10:50:33;;;;;;;1.50;0.75;;;18.70;99.90;;;;;;5052285;28;20210;-72
2023/07/31 10:53:00;;;;;;;1.60;0.80;;;18.60;99.90;;;;;;5052528;28;20069;-69
2023/07/31 10:55:28;;;;;;;1.20;0.70;;;18.40;99.90;;;;;;5052348;28;20107;-73
2023/07/31 10:57:56;;;;;;;1.67;0.50;;;18.70;99.90;;;;;;5057778;28;20044;-72
2023/07/31 11:00:30;;;;;;;1.00;0.70;;;18.40;99.90;;;;;;5072546;28;20120;-72
2023/07/31 11:03:00;;;;;;;0.60;0.43;;;18.50;99.90;;;;;;5072579;28;20044;-72
2023/07/31 11:05:59;;;;;;;1.10;0.68;;;18.60;99.90;;;;;;5071084;28;20044;-73
2023/07/31 11:08:40;;;;;;;0.95;0.52;;;18.40;99.90;;;;;;5072166;28;20045;-72
2023/07/31 11:11:09;;;;;;;1.33;0.70;;;18.70;99.90;;;;;;5072346;28;20040;-72
2023/07/31 11:13:41;;;;;;;0.98;0.60;;;18.60;99.90;;;;;;5072238;28;20046;-72
2023/07/31 11:16:07;;;;;;;1.33;0.70;;;18.60;99.90;;;;;;5072375;28;20040;-73
2023/07/31 11:18:33;;;;;;;2.05;0.28;;;19.00;99.90;;;;;;5071486;28;20420;-73
2023/07/31 11:20:59;;;;;;;0.93;0.30;;;18.80;99.90;;;;;;5072217;28;20040;-73
2023/07/31 11:23:24;;;;;;;0.45;0.30;;;19.00;99.90;;;;;;5072128;28;20072;-73
2023/07/31 11:25:50;;;;;;;0.70;0.50;;;18.90;99.90;;;;;;5070857;28;20463;-72
2023/07/31 11:28:18;;;;;;;0.35;0.20;;;18.70;99.90;;;;;;5070182;28;20522;-72
2023/07/31 11:30:45;;;;;;;1.73;0.30;;;18.80;99.90;;;;;;5054215;28;20119;-72
2023/07/31 11:33:13;;;;;;;1.65;0.82;;;18.80;99.90;;;;;;5070685;28;20036;-71
2023/07/31 11:35:49;;;;;;;0.55;0.20;;;18.50;99.90;;;;;;5070550;28;20033;-72
2023/07/31 11:38:26;;;;;;;2.38;0.20;;;18.70;99.90;;;;;;5070098;28;20083;-72
2023/07/31 11:40:53;;;;;;;0.73;0.30;;;18.70;99.90;;;;;;5071700;28;20036;-72
2023/07/31 11:43:20;;;;;;;0.28;0.10;;;18.60;99.90;;;;;;5042173;28;20052;-73
2023/07/31 11:45:54;;;;;;;0.20;0.17;;;18.90;99.90;;;;;;5071865;28;20079;-73
2023/07/31 11:48:27;;;;;;;0.25;0.20;;;18.80;99.90;;;;;;5071324;28;20134;-73
2023/07/31 11:51:02;;;;;;;;;;;19.20;99.90;;;;;;5054318;28;20033;-73
2023/07/31 11:53:33;;;;;;;1.58;0.50;;;19.30;99.90;;;;;;5042648;28;19935;-73
2023/07/31 11:56:00;;;;;;;0.77;0.45;;;19.10;99.90;;;;;;5060520;28;20037;-73
2023/07/31 11:58:27;;;;;;;1.60;0.70;;;19.00;99.90;;;;;;5043869;28;20059;-73
2023/07/31 12:00:53;;;;;;;2.53;0.50;;;18.90;99.90;;;;;;5060751;28;20496;-73
2023/07/31 12:03:19;;;;;;;1.75;0.70;;;18.90;99.90;;;;;;5071546;28;20043;-73
2023/07/31 12:05:48;;;;;;;1.92;0.60;;;19.40;99.90;;;;;;5053490;28;20059;-74
2023/07/31 12:08:14;;;;;;;1.63;0.65;;;19.30;99.90;;;;;;5053300;28;20448;-73
2023/07/31 12:10:40;;;;;;;1.33;0.63;;;19.50;99.90;;;;;;5067084;28;20110;-74
2023/07/31 12:13:18;;;;;;;2.45;0.70;;;19.50;99.90;;;;;;5036147;28;20179;-73
2023/07/31 12:15:44;;;;;;;1.58;0.70;;;19.40;99.90;;;;;;5053390;28;20037;-74
2023/07/31 12:18:14;;;;;;;1.77;0.80;;;19.50;99.90;;;;;;5059046;28;20048;-74
2023/07/31 12:20:44;;;;;;;1.13;0.70;;;19.80;99.90;;;;;;5062837;28;20056;-73
2023/07/31 12:23:27;;;;;;;1.70;0.60;;;19.40;99.90;;;;;;5064375;28;20036;-73
2023/07/31 12:26:03;;;;;;;2.75;1.27;;;19.40;99.90;;;;;;5042602;28;20048;-73
2023/07/31 12:28:28;;;;;;;2.28;0.73;;;19.40;99.90;;;;;;5058931;28;20044;-73
2023/07/31 12:30:59;;;;;;;1.33;1.10;;;19.40;99.90;;;;;;5074474;28;20033;-74
2023/07/31 12:33:34;;;;;;;1.42;0.77;;;19.10;99.90;;;;;;5075407;28;20078;-73
2023/07/31 12:36:04;;;;;;;1.58;0.95;;;19.10;99.90;;;;;;5057402;28;20045;-74
2023/07/31 12:38:30;;;;;;;1.80;0.77;;;19.10;99.90;;;;;;5074879;28;20056;-73
2023/07/31 12:40:56;;;;;;;4.55;1.50;;;19.10;99.90;;;;;;5075269;28;20113;-73
2023/07/31 12:43:21;;;;;;;3.47;1.10;;;19.00;99.90;;;;;;5070349;28;20033;-73
2023/07/31 12:45:47;;;;;;;1.83;1.65;;;19.00;99.90;;;;;;5047108;28;20033;-73